PWSweather.com
Personal Weather Stations
Station Observations
KRMIDAS
Braemar, Lake Zurich, IL 60047

BraemarLake Zurich, IL 60047

Lat: 42.178, Lon: -88.102

Elevation: 837

Station Type: Davis Vantage Pro 2

http://tomkeramidas.com/cumulus/index.htm

Latest ConditionsUpdated 8:30:01 AM CDT Tuesday, May 26, 2015
Currently Today's Max Today's Min Today's Average
Temperature 67.9°F19.9°C 68.3°F20.2°C 66.3°F19.1°C 67.4°F19.7°C
Dew Point 64.9°F18.3°C 65.6°F18.7°C 61.1°F16.2°C 64.1°F17.8°C
Winds 6.0 mph SSE9.7 kmh SSE 6.0 mph SSE9.7 kmh SSE - 3.4 mph 5.5 kmh
Wind Gusts 20.0 mph32.2 kmh 20.0 mph32.2 kmh - -
Humidity 90% 94% 79% 89%
Pressure 29.91 in1012.9 mb 29.92 in1013.2 mb 29.90 in1012.5 mb -
Hour Temp Dew Point Humidity Winds Wind Gusts Pressure Precip Precip Rate Daily Precip Total
08:30 AM 67.9°F19.9°C 64.9°F18.3°C 90% 6.0 mph SSE9.7 kmh SSE 20.0 mph32.2 kmh 29.91 in1012.9 mb 0.00 in0.0 mm 0.00 in0.0 mm 0.00 in0.0 mm
08:15 AM 67.9°F19.9°C 64.9°F18.3°C 90% 5.0 mph SSE8.0 kmh SSE 15.0 mph24.1 kmh 29.91 in1012.9 mb 0.00 in0.0 mm 0.00 in0.0 mm 0.00 in0.0 mm
08:00 AM 67.8°F19.9°C 65.1°F18.4°C 91% 4.0 mph SSE6.4 kmh SSE 14.0 mph22.5 kmh 29.91 in1012.9 mb 0.00 in0.0 mm 0.00 in0.0 mm 0.00 in0.0 mm
07:45 AM 67.7°F19.8°C 65.0°F18.3°C 91% 5.0 mph SSE8.0 kmh SSE 12.0 mph19.3 kmh 29.92 in1013.2 mb 0.00 in0.0 mm 0.00 in0.0 mm 0.00 in0.0 mm
07:30 AM 67.8°F19.9°C 65.4°F18.6°C 92% 4.0 mph SSE6.4 kmh SSE 11.0 mph17.7 kmh 29.92 in1013.2 mb 0.00 in0.0 mm 0.00 in0.0 mm 0.00 in0.0 mm
07:15 AM 67.7°F19.8°C 65.3°F18.5°C 92% 3.0 mph S4.8 kmh S 11.0 mph17.7 kmh 29.92 in1013.2 mb 0.00 in0.0 mm 0.00 in0.0 mm 0.00 in0.0 mm
07:00 AM 67.8°F19.9°C 65.4°F18.6°C 92% 2.0 mph S3.2 kmh S 13.0 mph20.9 kmh 29.92 in1013.2 mb 0.00 in0.0 mm 0.00 in0.0 mm 0.00 in0.0 mm
06:45 AM 67.7°F19.8°C 65.6°F18.7°C 93% 2.0 mph S3.2 kmh S 9.0 mph14.5 kmh 29.91 in1012.9 mb 0.00 in0.0 mm 0.00 in0.0 mm 0.00 in0.0 mm
06:30 AM 67.6°F19.8°C 65.5°F18.6°C 93% 3.0 mph S4.8 kmh S 12.0 mph19.3 kmh 29.91 in1012.9 mb 0.00 in0.0 mm 0.00 in0.0 mm 0.00 in0.0 mm
06:15 AM 67.4°F19.7°C 65.3°F18.5°C 93% 2.0 mph S3.2 kmh S 9.0 mph14.5 kmh 29.91 in1012.9 mb 0.00 in0.0 mm 0.00 in0.0 mm 0.00 in0.0 mm
06:00 AM 67.4°F19.7°C 65.3°F18.5°C 93% 2.0 mph S3.2 kmh S 12.0 mph19.3 kmh 29.91 in1012.9 mb 0.00 in0.0 mm 0.00 in0.0 mm 0.00 in0.0 mm
05:45 AM 67.2°F19.6°C 65.1°F18.4°C 93% 4.0 mph S6.4 kmh S 14.0 mph22.5 kmh 29.91 in1012.9 mb 0.00 in0.0 mm 0.00 in0.0 mm 0.00 in0.0 mm
05:30 AM 67.0°F19.4°C 65.2°F18.4°C 94% 4.0 mph S6.4 kmh S 12.0 mph19.3 kmh 29.91 in1012.9 mb 0.00 in0.0 mm 0.00 in0.0 mm 0.00 in0.0 mm
05:15 AM 66.6°F19.2°C 64.8°F18.2°C 94% 5.0 mph S8.0 kmh S 14.0 mph22.5 kmh 29.91 in1012.9 mb 0.00 in0.0 mm 0.00 in0.0 mm 0.00 in0.0 mm
05:00 AM 66.3°F19.1°C 64.5°F18.1°C 94% 3.0 mph S4.8 kmh S 17.0 mph27.4 kmh 29.91 in1012.9 mb 0.00 in0.0 mm 0.00 in0.0 mm 0.00 in0.0 mm
04:45 AM 66.4°F19.1°C 64.6°F18.1°C 94% 3.0 mph S4.8 kmh S 11.0 mph17.7 kmh 29.91 in1012.9 mb 0.00 in0.0 mm 0.00 in0.0 mm 0.00 in0.0 mm
04:30 AM 66.6°F19.2°C 64.5°F18.1°C 93% 3.0 mph S4.8 kmh S 11.0 mph17.7 kmh 29.90 in1012.5 mb 0.00 in0.0 mm 0.00 in0.0 mm 0.00 in0.0 mm
04:15 AM 66.9°F19.4°C 64.8°F18.2°C 93% 4.0 mph S6.4 kmh S 11.0 mph17.7 kmh 29.90 in1012.5 mb 0.00 in0.0 mm 0.00 in0.0 mm 0.00 in0.0 mm
04:00 AM 66.9°F19.4°C 64.5°F18.1°C 92% 4.0 mph S6.4 kmh S 15.0 mph24.1 kmh 29.90 in1012.5 mb 0.00 in0.0 mm 0.00 in0.0 mm 0.00 in0.0 mm
03:45 AM 67.1°F19.5°C 64.7°F18.2°C 92% 4.0 mph S6.4 kmh S 11.0 mph17.7 kmh 29.90 in1012.5 mb 0.00 in0.0 mm 0.00 in0.0 mm 0.00 in0.0 mm
03:30 AM 67.2°F19.6°C 64.5°F18.1°C 91% 5.0 mph S8.0 kmh S 12.0 mph19.3 kmh 29.91 in1012.9 mb 0.00 in0.0 mm 0.00 in0.0 mm 0.00 in0.0 mm
03:15 AM 67.2°F19.6°C 64.5°F18.1°C 91% 4.0 mph S6.4 kmh S 12.0 mph19.3 kmh 29.91 in1012.9 mb 0.00 in0.0 mm 0.00 in0.0 mm 0.00 in0.0 mm
03:00 AM 67.2°F19.6°C 64.2°F17.9°C 90% 4.0 mph S6.4 kmh S 14.0 mph22.5 kmh 29.90 in1012.5 mb 0.00 in0.0 mm 0.00 in0.0 mm 0.00 in0.0 mm
02:45 AM 67.4°F19.7°C 64.0°F17.8°C 89% 3.0 mph S4.8 kmh S 12.0 mph19.3 kmh 29.90 in1012.5 mb 0.00 in0.0 mm 0.00 in0.0 mm 0.00 in0.0 mm
02:30 AM 67.5°F19.7°C 63.8°F17.7°C 88% 2.0 mph S3.2 kmh S 10.0 mph16.1 kmh 29.91 in1012.9 mb 0.00 in0.0 mm 0.00 in0.0 mm 0.00 in0.0 mm
02:15 AM 67.8°F19.9°C 63.8°F17.7°C 87% 3.0 mph S4.8 kmh S 11.0 mph17.7 kmh 29.91 in1012.9 mb 0.00 in0.0 mm 0.00 in0.0 mm 0.00 in0.0 mm
02:00 AM 67.9°F19.9°C 63.6°F17.6°C 86% 3.0 mph S4.8 kmh S 12.0 mph19.3 kmh 29.91 in1012.9 mb 0.00 in0.0 mm 0.00 in0.0 mm 0.00 in0.0 mm
01:45 AM 68.1°F20.1°C 63.1°F17.3°C 84% 3.0 mph S4.8 kmh S 11.0 mph17.7 kmh 29.91 in1012.9 mb 0.00 in0.0 mm 0.00 in0.0 mm 0.00 in0.0 mm
01:30 AM 68.2°F20.1°C 62.5°F16.9°C 82% 4.0 mph S6.4 kmh S 10.0 mph16.1 kmh 29.91 in1012.9 mb 0.00 in0.0 mm 0.00 in0.0 mm 0.00 in0.0 mm
01:15 AM 68.3°F20.2°C 62.2°F16.8°C 81% 4.0 mph S6.4 kmh S 13.0 mph20.9 kmh 29.92 in1013.2 mb 0.00 in0.0 mm 0.00 in0.0 mm 0.00 in0.0 mm
01:00 AM 68.1°F20.1°C 61.7°F16.5°C 80% 5.0 mph S8.0 kmh S 14.0 mph22.5 kmh 29.92 in1013.2 mb 0.00 in0.0 mm 0.00 in0.0 mm 0.00 in0.0 mm
12:45 AM 67.9°F19.9°C 61.1°F16.2°C 79% 2.0 mph S3.2 kmh S 9.0 mph14.5 kmh 29.92 in1013.2 mb 0.00 in0.0 mm 0.00 in0.0 mm 0.00 in0.0 mm
12:30 AM 67.9°F19.9°C 61.1°F16.2°C 79% 2.0 mph S3.2 kmh S 8.0 mph12.9 kmh 29.92 in1013.2 mb 0.00 in0.0 mm 0.00 in0.0 mm 0.00 in0.0 mm
12:15 AM 67.2°F19.6°C 61.2°F16.2°C 81% 1.0 mph S1.6 kmh S 9.0 mph14.5 kmh 29.92 in1013.2 mb 0.00 in0.0 mm 0.00 in0.0 mm 0.00 in0.0 mm
12:00 AM 66.5°F19.2°C 61.2°F16.2°C 83% 2.0 mph S3.2 kmh S 7.0 mph11.3 kmh 29.91 in1012.9 mb 0.00 in0.0 mm 0.00 in0.0 mm 0.00 in0.0 mm